Time;durP1;ratioP1;P1;durP2;ratioP2;P2;SDS_P1;SDS_P2;PMS_P1;PMS_P2;Temp;Humidity;BMP_temperature;BMP_pressure;BME280_temperature;BME280_humidity;BME280_pressure;Samples;Min_cycle;Max_cycle;Signal;HPM_P1;HPM_P2
2021/01/15 00:00:10;;;;;;;27.17;13.18;;;;;;;-1.42;90.52;102444.25;5038358;28;20044;-78
2021/01/15 00:02:36;;;;;;;29.67;13.73;;;;;;;-1.41;90.56;102445.13;5035788;28;20045;-76
2021/01/15 00:05:01;;;;;;;27.27;14.27;;;;;;;-1.41;90.38;102452.69;5041859;28;20446;-77
2021/01/15 00:07:30;;;;;;;28.83;13.98;;;;;;;-1.38;90.45;102448.84;5038614;28;20278;-77
2021/01/15 00:09:55;;;;;;;29.37;14.20;;;;;;;-1.38;90.64;102443.78;5041501;28;20029;-77
2021/01/15 00:12:20;;;;;;;24.83;12.85;;;;;;;-1.38;90.54;102458.91;5042733;28;20028;-78
2021/01/15 00:14:46;;;;;;;25.00;13.13;;;;;;;-1.42;90.30;102446.75;5031454;28;21651;-77
2021/01/15 00:17:11;;;;;;;24.05;12.65;;;;;;;-1.42;90.62;102463.53;5032399;28;20127;-77
2021/01/15 00:19:36;;;;;;;26.63;13.73;;;;;;;-1.40;90.23;102457.88;5032814;28;20021;-76
2021/01/15 00:22:02;;;;;;;24.00;12.70;;;;;;;-1.42;90.33;102456.84;5038825;28;20032;-75
2021/01/15 00:24:27;;;;;;;25.50;12.73;;;;;;;-1.38;90.03;102458.91;5035658;28;20280;-74
2021/01/15 00:26:52;;;;;;;26.83;12.98;;;;;;;-1.39;89.65;102462.19;5031691;28;20047;-77
2021/01/15 00:29:18;;;;;;;25.85;13.38;;;;;;;-1.39;89.78;102468.84;5034459;28;20676;-76
2021/01/15 00:31:46;;;;;;;20.13;12.68;;;;;;;-1.35;89.59;102468.41;5035054;28;20014;-77
2021/01/15 00:34:14;;;;;;;25.27;12.43;;;;;;;-1.33;89.15;102472.84;5042166;28;20021;-77
2021/01/15 00:36:41;;;;;;;23.70;13.30;;;;;;;-1.37;89.00;102475.81;5043442;28;20031;-76
2021/01/15 00:39:08;;;;;;;26.80;12.47;;;;;;;-1.39;89.08;102496.56;5047693;28;20483;-76
2021/01/15 00:41:37;;;;;;;24.23;12.97;;;;;;;-1.44;89.12;102488.56;5039310;28;20494;-75
2021/01/15 00:44:05;;;;;;;18.40;11.53;;;;;;;-1.46;88.88;102492.56;5037239;28;20025;-75
2021/01/15 00:46:31;;;;;;;24.67;12.17;;;;;;;-1.50;89.23;102497.16;5028927;28;20231;-77
2021/01/15 00:49:01;;;;;;;;;;;;;;;-1.47;88.64;102503.41;5037558;28;20044;-75
2021/01/15 00:51:26;;;;;;;21.70;12.53;;;;;;;-1.48;88.56;102501.63;5041774;28;19928;-76
2021/01/15 00:53:51;;;;;;;21.77;11.25;;;;;;;-1.48;89.01;102505.78;5027159;28;20033;-75
2021/01/15 00:56:17;;;;;;;22.00;12.85;;;;;;;-1.49;88.54;102507.41;5028477;28;20021;-76
2021/01/15 00:58:47;;;;;;;20.85;11.90;;;;;;;-1.48;88.52;102511.69;5043126;28;20033;-76
2021/01/15 01:01:18;;;;;;;23.07;11.83;;;;;;;-1.50;88.68;102512.28;5035090;28;20104;-75
2021/01/15 01:03:44;;;;;;;21.73;11.80;;;;;;;-1.50;88.18;102514.81;5030554;28;20025;-76
2021/01/15 01:06:14;;;;;;;20.45;11.75;;;;;;;-1.56;88.61;102520.13;5042508;28;20028;-76
2021/01/15 01:08:40;;;;;;;22.10;11.47;;;;;;;-1.52;88.25;102532.31;5033088;28;20029;-75
2021/01/15 01:11:12;;;;;;;18.60;10.57;;;;;;;-1.54;87.77;102532.88;5033544;28;20077;-77
2021/01/15 01:13:38;;;;;;;20.17;10.93;;;;;;;-1.54;88.08;102531.25;5034196;28;20040;-76
2021/01/15 01:16:04;;;;;;;;;;;;;;;-1.53;87.31;102538.09;5040741;28;20037;-76
2021/01/15 01:18:29;;;;;;;22.30;11.93;;;;;;;-1.56;87.12;102540.31;5040915;28;19913;-76
2021/01/15 01:20:54;;;;;;;18.40;10.80;;;;;;;-1.50;86.76;102548.47;5043344;28;20098;-76
2021/01/15 01:23:19;;;;;;;19.92;10.55;;;;;;;-1.51;86.41;102546.69;5041774;28;20052;-76
2021/01/15 01:25:45;;;;;;;19.03;11.00;;;;;;;-1.51;86.52;102556.75;5041086;28;20025;-76
2021/01/15 01:28:10;;;;;;;18.00;10.17;;;;;;;-1.50;85.89;102561.06;5034700;28;20287;-77
2021/01/15 01:30:37;;;;;;;19.40;11.38;;;;;;;-1.53;86.00;102558.25;5041477;28;20262;-76
2021/01/15 01:33:03;;;;;;;17.83;10.20;;;;;;;-1.44;85.14;102558.25;5034802;28;20029;-75
2021/01/15 01:35:28;;;;;;;22.15;10.63;;;;;;;-1.44;85.48;102569.22;5041037;28;20403;-76
2021/01/15 01:37:53;;;;;;;21.35;10.63;;;;;;;-1.44;85.37;102571.75;5032983;28;20024;-76
2021/01/15 01:40:20;;;;;;;17.10;10.85;;;;;;;-1.48;85.17;102577.22;5028125;28;20028;-76
2021/01/15 01:42:45;;;;;;;21.53;10.50;;;;;;;-1.48;85.07;102574.69;5036631;28;20025;-76
2021/01/15 01:45:11;;;;;;;19.63;9.95;;;;;;;-1.53;85.34;102583.44;5033902;28;20029;-76
2021/01/15 01:47:37;;;;;;;16.75;10.27;;;;;;;-1.56;85.47;102590.69;5034785;28;20040;-75
2021/01/15 01:50:04;;;;;;;17.70;9.52;;;;;;;-1.55;85.13;102589.97;5033348;28;20032;-75
2021/01/15 01:52:30;;;;;;;18.17;10.80;;;;;;;-1.57;84.92;102587.28;5044452;28;20070;-77
2021/01/15 01:54:55;;;;;;;18.58;10.60;;;;;;;-1.58;85.33;102599.72;5039154;28;20108;-77
2021/01/15 01:57:20;;;;;;;17.27;9.77;;;;;;;-1.63;85.23;102603.38;5025569;28;20048;-76
2021/01/15 01:59:46;;;;;;;18.58;10.20;;;;;;;-1.63;84.48;102600.88;5040223;28;20112;-76
2021/01/15 02:02:11;;;;;;;17.30;10.25;;;;;;;-1.69;85.36;102613.75;5046290;28;20068;-76
2021/01/15 02:04:36;;;;;;;16.85;10.52;;;;;;;-1.75;85.60;102609.72;5047077;28;20033;-76
2021/01/15 02:07:02;;;;;;;18.30;10.45;;;;;;;-1.76;85.78;102613.00;5047383;28;20052;-75
2021/01/15 02:09:38;;;;;;;18.83;10.85;;;;;;;-1.83;85.78;102616.53;5047228;28;20496;-75
2021/01/15 02:12:19;;;;;;;15.40;9.00;;;;;;;-1.88;85.65;102616.06;5030365;28;20384;-76
2021/01/15 02:14:54;;;;;;;20.83;12.17;;;;;;;-1.91;86.15;102620.78;5045052;28;20026;-77
2021/01/15 02:17:24;;;;;;;19.10;11.20;;;;;;;-1.90;85.51;102625.09;5043675;28;20095;-77
2021/01/15 02:20:43;;;;;;;18.90;11.50;;;;;;;-1.86;85.46;102622.88;5041821;28;20029;-77
2021/01/15 02:23:28;;;;;;;18.53;10.80;;;;;;;-1.91;85.72;102628.34;4953921;28;20412;-77
2021/01/15 02:26:05;;;;;;;21.30;11.57;;;;;;;-1.93;85.75;102637.38;4973063;28;20058;-76
2021/01/15 02:28:54;;;;;;;19.50;10.63;;;;;;;-1.91;85.82;102635.91;5013048;28;20053;-75
2021/01/15 02:31:46;;;;;;;24.07;12.77;;;;;;;-1.99;86.17;102639.22;5027192;28;20026;-76
2021/01/15 02:34:37;;;;;;;20.73;12.07;;;;;;;-2.04;86.32;102632.84;5030446;28;20528;-75
2021/01/15 02:37:12;;;;;;;21.23;12.40;;;;;;;-2.07;86.56;102636.69;5033995;28;20061;-74
2021/01/15 02:40:01;;;;;;;21.50;11.50;;;;;;;-2.11;86.45;102638.00;5026971;28;20033;-76
2021/01/15 02:42:26;;;;;;;20.00;12.00;;;;;;;-2.07;86.27;102642.59;5028215;28;20048;-76
2021/01/15 02:44:53;;;;;;;21.95;11.25;;;;;;;-2.09;86.29;102640.66;5041788;28;20025;-74
2021/01/15 02:47:23;;;;;;;19.30;12.13;;;;;;;-2.10;86.14;102637.25;5034431;28;20067;-77
2021/01/15 02:49:53;;;;;;;23.70;12.60;;;;;;;-2.16;87.09;102643.28;5037415;28;20035;-76
2021/01/15 02:52:18;;;;;;;23.00;12.23;;;;;;;-2.23;87.03;102656.88;5031026;28;20514;-76
2021/01/15 02:54:44;;;;;;;25.45;14.05;;;;;;;-2.27;87.30;102658.19;5039373;28;20067;-76
2021/01/15 02:57:09;;;;;;;24.15;13.90;;;;;;;-2.30;87.33;102651.91;5032569;28;20029;-77
2021/01/15 02:59:34;;;;;;;22.10;13.25;;;;;;;-2.31;87.64;102658.56;5044016;28;20029;-76
2021/01/15 03:02:07;;;;;;;23.73;13.03;;;;;;;-2.26;87.68;102666.63;5032067;28;20047;-75
2021/01/15 03:05:02;;;;;;;21.03;12.47;;;;;;;-2.25;87.56;102665.91;5035182;28;20272;-77
2021/01/15 03:07:28;;;;;;;23.23;13.33;;;;;;;-2.15;87.52;102671.13;5041774;28;20029;-76
2021/01/15 03:09:56;;;;;;;25.50;13.83;;;;;;;-2.09;87.75;102669.25;5035978;28;20147;-76
2021/01/15 03:12:24;;;;;;;22.80;12.97;;;;;;;-2.02;87.87;102670.75;5035301;28;20053;-76
2021/01/15 03:14:52;;;;;;;22.03;12.83;;;;;;;-1.95;87.30;102671.59;5039347;28;20028;-75
2021/01/15 03:17:23;;;;;;;21.50;12.60;;;;;;;-1.89;86.89;102668.78;5046082;28;20044;-76
2021/01/15 03:19:49;;;;;;;22.30;12.13;;;;;;;-1.79;86.72;102668.09;5046175;28;20033;-75
2021/01/15 03:22:16;;;;;;;19.08;10.93;;;;;;;-1.69;86.17;102675.84;5045130;28;20095;-77
2021/01/15 03:24:51;;;;;;;20.70;11.57;;;;;;;-1.62;86.15;102674.13;5035420;28;20029;-77
2021/01/15 03:27:18;;;;;;;21.93;12.13;;;;;;;-1.50;85.63;102674.47;5044704;28;20025;-76
2021/01/15 03:29:43;;;;;;;19.07;11.10;;;;;;;-1.46;85.85;102671.50;5038165;28;20028;-76
2021/01/15 03:32:08;;;;;;;18.75;11.55;;;;;;;-1.36;85.38;102673.31;5049676;28;20099;-74
2021/01/15 03:34:34;;;;;;;17.98;11.10;;;;;;;-1.36;85.25;102671.69;5039592;28;20033;-75
2021/01/15 03:36:59;;;;;;;18.33;10.80;;;;;;;-1.36;85.00;102674.22;5030806;28;20526;-76
2021/01/15 03:39:24;;;;;;;15.82;10.18;;;;;;;-1.29;84.41;102675.75;5041673;28;20116;-76
2021/01/15 03:41:49;;;;;;;19.63;10.40;;;;;;;-1.12;84.10;102680.81;5042964;28;20139;-76
2021/01/15 03:44:14;;;;;;;18.70;10.60;;;;;;;-1.04;83.20;102677.44;5044536;28;20640;-76
2021/01/15 03:46:40;;;;;;;17.05;10.70;;;;;;;-1.03;83.42;102688.41;5031635;28;20079;-76
2021/01/15 03:49:05;;;;;;;18.90;10.73;;;;;;;-0.99;82.90;102682.91;5031965;28;20023;-76
2021/01/15 03:51:30;;;;;;;15.57;9.10;;;;;;;-0.98;82.28;102687.22;5034589;28;20264;-77
2021/01/15 03:53:55;;;;;;;16.55;9.68;;;;;;;-0.97;82.26;102694.09;5042898;28;20021;-76
2021/01/15 03:56:21;;;;;;;16.50;9.32;;;;;;;-0.93;82.09;102692.75;5039039;28;20494;-77
2021/01/15 03:58:46;;;;;;;18.35;9.27;;;;;;;-0.91;82.03;102696.31;5040765;28;20053;-76
2021/01/15 04:01:11;;;;;;;16.20;10.07;;;;;;;-0.88;82.35;102699.13;5039400;28;20161;-73
2021/01/15 04:03:37;;;;;;;16.23;9.82;;;;;;;-0.92;82.32;102703.00;5046104;28;20124;-74
2021/01/15 04:06:03;;;;;;;14.20;9.38;;;;;;;-0.94;82.99;102696.91;5033089;28;20057;-76
2021/01/15 04:08:28;;;;;;;13.57;8.80;;;;;;;-0.89;82.86;102700.78;5034160;28;20033;-76
2021/01/15 04:10:53;;;;;;;15.55;8.95;;;;;;;-0.87;82.13;102696.78;5033470;28;20430;-75
2021/01/15 04:13:19;;;;;;;12.55;8.45;;;;;;;-0.68;81.81;102709.53;5030126;28;20026;-75
2021/01/15 04:15:44;;;;;;;14.60;8.77;;;;;;;-0.68;80.81;102707.03;5037430;28;20028;-75
2021/01/15 04:18:09;;;;;;;17.25;8.95;;;;;;;-0.71;81.58;102702.56;5043030;28;20633;-77
2021/01/15 04:20:35;;;;;;;15.67;9.40;;;;;;;-0.72;80.44;102713.41;5047704;28;20028;-76
2021/01/15 04:23:00;;;;;;;14.60;8.50;;;;;;;-0.70;80.97;102718.59;5043612;28;20823;-77
2021/01/15 04:25:25;;;;;;;13.90;8.33;;;;;;;-0.67;80.86;102718.91;5039407;28;20021;-74
2021/01/15 04:27:50;;;;;;;16.52;8.77;;;;;;;-0.68;80.73;102725.56;5047524;28;20267;-74
2021/01/15 04:30:17;;;;;;;14.48;8.68;;;;;;;-0.69;80.72;102730.47;5046330;28;20021;-76
2021/01/15 04:32:47;;;;;;;15.77;9.70;;;;;;;-0.67;81.46;102729.88;5042065;28;20382;-76
2021/01/15 04:35:17;;;;;;;13.27;8.17;;;;;;;-0.64;80.95;102727.69;5037666;28;20139;-76
2021/01/15 04:37:43;;;;;;;14.27;8.63;;;;;;;-0.69;81.38;102731.38;5039087;28;20033;-76
2021/01/15 04:40:10;;;;;;;18.17;9.38;;;;;;;-0.69;81.03;102733.00;5040522;28;20020;-76
2021/01/15 04:42:41;;;;;;;14.70;8.70;;;;;;;-0.70;81.13;102734.63;5044457;28;20479;-76
2021/01/15 04:45:08;;;;;;;14.23;8.53;;;;;;;-0.64;80.83;102745.34;5039093;28;20033;-74
2021/01/15 04:47:34;;;;;;;13.37;7.63;;;;;;;-0.54;78.83;102736.16;5041975;28;20479;-73
2021/01/15 04:50:00;;;;;;;13.18;8.35;;;;;;;-0.54;79.83;102741.22;5040406;28;20473;-73
2021/01/15 04:52:25;;;;;;;12.77;7.38;;;;;;;-0.45;79.67;102737.94;5036363;28;20113;-72
2021/01/15 04:54:57;;;;;;;12.55;7.20;;;;;;;-0.51;79.70;102741.50;5029952;28;20025;-72
2021/01/15 04:57:26;;;;;;;14.87;7.57;;;;;;;-0.46;79.66;102742.84;5035899;28;20018;-74
2021/01/15 04:59:54;;;;;;;13.43;7.63;;;;;;;-0.50;79.70;102745.81;5041681;28;20071;-74
2021/01/15 05:02:19;;;;;;;17.47;8.70;;;;;;;-0.44;80.39;102748.94;5037126;28;20029;-74
2021/01/15 05:04:44;;;;;;;14.07;8.20;;;;;;;-0.36;80.00;102745.50;5037703;28;20396;-73
2021/01/15 05:07:12;;;;;;;15.00;8.75;;;;;;;-0.40;80.39;102745.97;5041015;28;20048;-74
2021/01/15 05:09:47;;;;;;;13.07;7.83;;;;;;;-0.40;80.32;102740.91;5032375;28;20030;-74
2021/01/15 05:12:16;;;;;;;13.53;8.03;;;;;;;-0.40;79.99;102754.44;5042371;28;20490;-74
2021/01/15 05:14:43;;;;;;;13.97;8.10;;;;;;;-0.44;80.05;102753.97;5040525;28;20082;-74
2021/01/15 05:17:09;;;;;;;14.83;8.50;;;;;;;-0.41;80.34;102756.81;5038663;28;20034;-74
2021/01/15 05:19:39;;;;;;;13.43;7.85;;;;;;;-0.26;79.68;102747.31;5042897;28;20446;-72
2021/01/15 05:22:09;;;;;;;13.50;7.27;;;;;;;-0.12;78.57;102755.47;5038591;28;20032;-77
2021/01/15 05:24:35;;;;;;;13.43;8.60;;;;;;;-0.12;78.84;102757.13;5037153;28;20035;-76
2021/01/15 05:27:38;;;;;;;;;;;;;;;-0.20;79.00;102769.00;5033494;28;20039;-76
2021/01/15 05:30:11;;;;;;;13.23;8.67;;;;;;;-0.22;79.62;102762.91;5040348;28;20386;-78
2021/01/15 05:32:37;;;;;;;15.50;8.93;;;;;;;-0.19;78.99;102768.25;5039406;28;20120;-76
2021/01/15 05:35:03;;;;;;;13.32;7.97;;;;;;;-0.23;78.80;102766.19;5035190;28;20137;-74
2021/01/15 05:37:28;;;;;;;13.60;8.27;;;;;;;-0.34;79.84;102771.81;5037200;28;20017;-76
2021/01/15 05:39:53;;;;;;;13.50;8.23;;;;;;;-0.42;80.61;102773.59;5036553;28;20116;-76
2021/01/15 05:42:19;;;;;;;12.87;8.53;;;;;;;-0.42;80.74;102772.69;5037630;28;20476;-76
2021/01/15 05:44:44;;;;;;;12.00;7.37;;;;;;;-0.36;80.82;102780.88;5041621;28;20283;-77
2021/01/15 05:47:09;;;;;;;13.00;7.97;;;;;;;-0.14;79.15;102778.81;5036649;28;20146;-76
2021/01/15 05:49:34;;;;;;;15.47;9.03;;;;;;;-0.13;78.70;102778.06;5035772;28;20029;-76
2021/01/15 05:52:07;;;;;;;16.40;9.23;;;;;;;-0.14;79.21;102788.91;5040739;28;20326;-76
2021/01/15 05:54:34;;;;;;;14.07;7.63;;;;;;;-0.15;79.06;102790.56;5044943;28;20827;-77
2021/01/15 05:57:00;;;;;;;15.73;9.03;;;;;;;-0.14;79.12;102789.81;5037375;28;20754;-75
2021/01/15 05:59:25;;;;;;;;;;;;;;;-0.17;79.23;102794.56;5037317;28;20040;-76
2021/01/15 06:01:55;;;;;;;15.37;9.07;;;;;;;-0.12;79.78;102795.91;5041680;28;19916;-76
2021/01/15 06:04:35;;;;;;;14.37;8.80;;;;;;;-0.19;80.30;102800.22;5042571;28;20032;-77
2021/01/15 06:07:13;;;;;;;15.60;9.37;;;;;;;-0.17;80.22;102802.13;5037981;28;20498;-76
2021/01/15 06:09:40;;;;;;;15.30;8.87;;;;;;;-0.07;79.78;102817.44;5036320;28;20067;-77
2021/01/15 06:12:09;;;;;;;16.20;8.13;;;;;;;-0.01;79.52;102822.19;5036311;28;20449;-76
2021/01/15 06:14:48;;;;;;;16.90;8.87;;;;;;;-0.10;79.89;102819.66;5042594;28;20032;-77
2021/01/15 06:17:15;;;;;;;17.23;8.93;;;;;;;-0.15;80.48;102828.44;5043094;28;20078;-77
2021/01/15 06:19:48;;;;;;;15.83;8.87;;;;;;;-0.09;80.37;102829.03;5035027;28;20067;-74
2021/01/15 06:22:28;;;;;;;13.87;8.60;;;;;;;-0.10;80.59;102828.88;5035985;28;20037;-78
2021/01/15 06:25:04;;;;;;;16.03;9.13;;;;;;;-0.20;81.13;102826.22;5035464;28;20029;-76
2021/01/15 06:27:35;;;;;;;17.30;9.03;;;;;;;-0.15;80.69;102833.50;5032379;28;20079;-76
2021/01/15 06:30:04;;;;;;;16.30;9.63;;;;;;;-0.22;81.56;102836.16;5042577;28;20017;-75
2021/01/15 06:32:29;;;;;;;17.17;8.63;;;;;;;-0.22;81.37;102838.69;5036187;28;20013;-77
2021/01/15 06:34:54;;;;;;;15.27;9.73;;;;;;;-0.25;81.83;102835.88;5039237;28;20510;-76
2021/01/15 06:37:23;;;;;;;16.27;9.23;;;;;;;-0.29;81.36;102846.41;5046360;28;20067;-76
2021/01/15 06:40:04;;;;;;;17.73;10.00;;;;;;;-0.30;81.82;102844.63;5036942;28;20271;-75
2021/01/15 06:42:30;;;;;;;16.23;9.50;;;;;;;-0.31;82.14;102842.84;5039181;28;20430;-77
2021/01/15 06:44:56;;;;;;;20.40;10.30;;;;;;;-0.27;81.48;102847.44;5035321;28;20087;-75
2021/01/15 06:47:26;;;;;;;17.30;9.98;;;;;;;-0.20;81.48;102854.88;5031642;28;20527;-75
2021/01/15 06:49:56;;;;;;;19.80;9.70;;;;;;;-0.11;81.39;102852.34;5040330;28;20020;-77
2021/01/15 06:52:27;;;;;;;15.93;9.43;;;;;;;-0.09;80.53;102859.34;5034604;28;20023;-76
2021/01/15 06:55:00;;;;;;;16.03;9.30;;;;;;;-0.20;80.61;102859.94;5049732;28;20027;-77
2021/01/15 06:57:29;;;;;;;18.60;10.27;;;;;;;-0.26;81.41;102864.38;5038513;28;20081;-76
2021/01/15 06:59:58;;;;;;;17.37;9.87;;;;;;;-0.15;80.24;102861.28;5032454;28;20025;-75
2021/01/15 07:02:35;;;;;;;16.90;9.73;;;;;;;-0.16;80.41;102864.53;5044764;28;20113;-76
2021/01/15 07:05:02;;;;;;;16.93;9.57;;;;;;;-0.16;80.79;102859.50;5045240;28;20072;-77
2021/01/15 07:07:29;;;;;;;16.73;10.00;;;;;;;-0.21;80.30;102855.63;5040158;28;20029;-77
2021/01/15 07:09:55;;;;;;;14.23;8.90;;;;;;;-0.21;80.05;102860.66;5047359;28;20025;-77
2021/01/15 07:12:22;;;;;;;15.38;9.43;;;;;;;-0.23;80.67;102868.84;5043936;28;20100;-76
2021/01/15 07:14:54;;;;;;;17.27;10.03;;;;;;;-0.27;80.54;102875.22;5036547;28;20021;-77
2021/01/15 07:17:36;;;;;;;17.93;10.00;;;;;;;-0.11;80.59;102878.50;5038791;28;20018;-77
2021/01/15 07:20:15;;;;;;;15.87;9.77;;;;;;;-0.17;80.56;102882.97;5031475;28;20025;-76
2021/01/15 07:22:59;;;;;;;17.33;10.70;;;;;;;-0.17;81.18;102884.59;5036515;28;20424;-76
2021/01/15 07:25:24;;;;;;;16.23;9.47;;;;;;;-0.17;81.25;102888.00;5046155;28;20028;-77
2021/01/15 07:27:50;;;;;;;17.55;9.88;;;;;;;-0.12;81.20;102891.88;5043325;28;20043;-77
2021/01/15 07:30:34;;;;;;;17.60;9.65;;;;;;;-0.15;81.79;102896.63;5042085;28;20042;-76
2021/01/15 07:33:06;;;;;;;19.73;10.23;;;;;;;0.03;80.96;102900.09;5041849;28;20025;-76
2021/01/15 07:35:36;;;;;;;18.37;9.80;;;;;;;0.13;81.57;102905.31;5046308;28;20021;-77
2021/01/15 07:38:12;;;;;;;19.83;9.70;;;;;;;0.18;79.83;102899.06;5035667;28;20040;-76
2021/01/15 07:40:38;;;;;;;15.68;8.00;;;;;;;0.20;78.90;102900.09;5037866;28;20032;-78
2021/01/15 07:43:03;;;;;;;16.05;10.00;;;;;;;0.15;79.90;102910.50;5039241;28;20386;-75
2021/01/15 07:45:31;;;;;;;16.35;9.23;;;;;;;0.18;79.35;102910.81;5033939;28;20021;-76
2021/01/15 07:48:02;;;;;;;16.03;9.80;;;;;;;0.19;79.50;102918.53;5042406;28;20484;-76
2021/01/15 07:50:36;;;;;;;16.60;9.90;;;;;;;0.25;78.93;102918.25;5042477;28;20043;-77
2021/01/15 07:53:20;;;;;;;15.97;9.83;;;;;;;0.28;78.96;102921.06;5044160;28;20057;-76
2021/01/15 07:55:48;;;;;;;18.77;11.00;;;;;;;0.27;78.93;102924.34;5036579;28;20025;-76
2021/01/15 07:58:15;;;;;;;18.33;10.53;;;;;;;0.27;78.85;102921.81;5041786;28;20481;-76
2021/01/15 08:00:41;;;;;;;17.43;9.80;;;;;;;0.28;78.37;102926.13;5041946;28;20530;-76
2021/01/15 08:03:07;;;;;;;18.90;10.50;;;;;;;0.31;78.67;102931.47;5036386;28;20028;-76
2021/01/15 08:05:32;;;;;;;19.88;10.43;;;;;;;0.30;79.30;102929.69;5043832;28;20030;-76
2021/01/15 08:08:12;;;;;;;18.02;9.75;;;;;;;0.24;78.47;102929.09;5032982;28;20055;-76
2021/01/15 08:10:46;;;;;;;16.87;9.80;;;;;;;0.29;79.31;102923.75;5046639;28;20088;-76
2021/01/15 08:13:20;;;;;;;18.40;9.77;;;;;;;0.36;78.90;102937.00;5041065;28;20508;-77
2021/01/15 08:15:45;;;;;;;17.17;9.73;;;;;;;0.39;78.07;102938.19;5043147;28;20036;-76
2021/01/15 08:18:11;;;;;;;16.25;10.00;;;;;;;0.31;78.58;102934.91;5047310;28;20033;-75
2021/01/15 08:20:37;;;;;;;14.73;9.27;;;;;;;0.21;78.54;102938.91;5035279;28;20049;-75
2021/01/15 08:23:02;;;;;;;15.95;9.75;;;;;;;0.16;79.31;102945.16;5032502;28;20060;-76
2021/01/15 08:25:30;;;;;;;19.95;10.25;;;;;;;0.12;80.54;102943.06;5038013;28;20060;-75
2021/01/15 08:27:56;;;;;;;16.80;9.67;;;;;;;0.19;81.48;102955.56;5035172;28;20029;-75
2021/01/15 08:30:23;;;;;;;18.30;10.50;;;;;;;0.43;81.70;102957.97;5049213;28;20080;-75
2021/01/15 08:32:48;;;;;;;17.40;9.10;;;;;;;0.46;80.42;102963.34;5041318;28;20031;-75
2021/01/15 08:35:25;;;;;;;17.23;9.55;;;;;;;0.56;79.08;102960.06;5041838;28;20028;-78
2021/01/15 08:37:58;;;;;;;19.17;10.27;;;;;;;0.43;78.52;102957.97;5030842;28;20025;-78
2021/01/15 08:40:38;;;;;;;14.80;9.67;;;;;;;0.33;78.63;102964.53;5038222;28;20025;-77
2021/01/15 08:43:05;;;;;;;18.00;10.00;;;;;;;0.44;80.53;102959.75;5038266;28;20029;-78
2021/01/15 08:45:30;;;;;;;16.53;9.90;;;;;;;0.50;81.13;102969.59;5042472;28;20069;-79
2021/01/15 08:47:56;;;;;;;21.23;10.38;;;;;;;0.59;79.42;102963.78;5038769;28;20467;-77
2021/01/15 08:50:23;;;;;;;15.82;9.85;;;;;;;0.66;78.00;102966.94;5049552;28;20043;-78
2021/01/15 08:52:50;;;;;;;19.73;10.90;;;;;;;0.66;77.97;102969.47;5036108;28;20127;-78
2021/01/15 08:55:17;;;;;;;18.47;9.10;;;;;;;0.67;78.50;102977.19;5036180;28;20018;-82
2021/01/15 08:57:42;;;;;;;18.67;9.80;;;;;;;0.73;77.85;102979.41;5037198;28;20044;-78
2021/01/15 09:00:08;;;;;;;16.25;8.85;;;;;;;0.73;78.20;102974.38;5036466;28;20025;-79
2021/01/15 09:02:40;;;;;;;16.55;9.50;;;;;;;0.79;77.34;102983.44;5039760;28;20635;-78
2021/01/15 09:05:11;;;;;;;14.97;9.60;;;;;;;0.88;77.24;102991.00;5043871;28;20036;-78
2021/01/15 09:07:42;;;;;;;16.67;10.00;;;;;;;0.92;77.73;102988.91;5041930;28;20017;-77
2021/01/15 09:10:11;;;;;;;19.37;10.20;;;;;;;0.91;78.01;102996.38;5049235;28;20099;-77
2021/01/15 09:12:40;;;;;;;19.53;10.60;;;;;;;0.86;78.09;102998.47;5049730;28;20394;-77
2021/01/15 09:15:06;;;;;;;19.40;11.03;;;;;;;0.85;78.18;103001.72;5041955;28;20039;-78
2021/01/15 09:17:31;;;;;;;18.33;10.40;;;;;;;0.90;77.99;103004.69;5037832;28;20441;-78
2021/01/15 09:19:57;;;;;;;17.05;10.65;;;;;;;0.84;78.16;103010.06;5040671;28;20033;-78
2021/01/15 09:22:26;;;;;;;19.27;10.30;;;;;;;0.87;78.16;103012.88;5044493;28;20386;-78
2021/01/15 09:24:52;;;;;;;18.33;10.57;;;;;;;0.89;78.07;103016.47;5037151;28;20662;-79
2021/01/15 09:27:20;;;;;;;18.70;10.45;;;;;;;0.86;77.53;103020.34;5039067;28;20030;-77
2021/01/15 09:29:45;;;;;;;18.13;10.00;;;;;;;0.83;77.82;103020.03;5035747;28;20021;-77
2021/01/15 09:32:11;;;;;;;20.10;10.67;;;;;;;0.88;78.33;103026.44;5037360;28;20035;-77
2021/01/15 09:34:36;;;;;;;18.77;10.13;;;;;;;0.94;77.66;103025.38;5037346;28;20329;-76
2021/01/15 09:37:01;;;;;;;21.17;10.55;;;;;;;1.00;77.30;103035.25;5035148;28;20435;-76
2021/01/15 09:39:27;;;;;;;16.98;9.88;;;;;;;1.01;77.70;103039.56;5034070;28;20033;-78
2021/01/15 09:41:54;;;;;;;18.35;10.68;;;;;;;0.97;77.89;103039.97;5047451;28;20025;-77
2021/01/15 09:44:21;;;;;;;16.27;10.10;;;;;;;0.97;77.43;103045.03;5035811;28;20025;-77
2021/01/15 09:46:47;;;;;;;17.43;9.50;;;;;;;1.03;76.71;103038.06;5040934;28;20070;-78
2021/01/15 09:49:13;;;;;;;16.53;9.97;;;;;;;1.04;76.74;103047.44;5037161;28;20033;-77
2021/01/15 09:51:39;;;;;;;18.02;9.70;;;;;;;1.04;76.77;103052.50;5038214;28;20025;-77
2021/01/15 09:54:04;;;;;;;19.10;10.48;;;;;;;1.02;76.99;103054.00;5039695;28;20018;-77
2021/01/15 09:56:40;;;;;;;17.63;10.13;;;;;;;0.97;76.73;103055.16;5038446;28;20033;-76
2021/01/15 09:59:07;;;;;;;14.57;9.15;;;;;;;0.96;77.41;103053.38;5037254;28;20025;-77
2021/01/15 10:01:33;;;;;;;19.43;10.17;;;;;;;0.94;76.78;103062.44;5039534;28;20036;-77
2021/01/15 10:03:59;;;;;;;18.63;9.85;;;;;;;0.94;77.59;103057.38;5038625;28;20029;-76
2021/01/15 10:06:27;;;;;;;;;;;;;;;1.02;76.42;103069.19;5045032;28;20504;-77
2021/01/15 10:08:53;;;;;;;19.23;10.77;;;;;;;0.96;76.29;103070.19;5045740;28;20321;-77
2021/01/15 10:11:23;;;;;;;16.13;9.45;;;;;;;0.93;76.62;103071.69;5044060;28;20020;-77
2021/01/15 10:13:49;;;;;;;19.50;9.70;;;;;;;1.01;76.45;103074.97;5045228;28;20029;-77
2021/01/15 10:16:14;;;;;;;16.10;9.52;;;;;;;0.95;76.87;103079.41;5045161;28;20112;-77
2021/01/15 10:18:40;;;;;;;19.48;10.13;;;;;;;0.96;76.35;103073.59;5044080;28;20101;-77
2021/01/15 10:21:09;;;;;;;17.55;9.80;;;;;;;1.03;76.42;103072.59;5041999;28;20045;-79
2021/01/15 10:23:35;;;;;;;19.67;9.73;;;;;;;1.04;76.68;103071.84;5041085;28;20035;-77
2021/01/15 10:26:01;;;;;;;15.93;9.57;;;;;;;1.07;76.22;103069.63;5045208;28;20082;-77
2021/01/15 10:28:26;;;;;;;15.57;10.10;;;;;;;1.11;75.52;103080.19;5039367;28;20096;-78
2021/01/15 10:30:52;;;;;;;16.05;9.73;;;;;;;1.04;76.74;103079.44;5039965;28;20029;-76
2021/01/15 10:33:20;;;;;;;16.13;9.68;;;;;;;1.11;76.07;103082.72;5041925;28;20025;-77
2021/01/15 10:35:45;;;;;;;16.17;9.47;;;;;;;1.12;75.95;103083.59;5041435;28;20032;-77
2021/01/15 10:38:10;;;;;;;17.30;9.90;;;;;;;1.18;75.75;103084.19;5043514;28;20479;-77
2021/01/15 10:40:36;;;;;;;17.17;9.90;;;;;;;1.28;74.95;103085.97;5042910;28;20282;-77
2021/01/15 10:43:01;;;;;;;20.90;10.40;;;;;;;1.30;75.25;103092.06;5047650;28;20079;-78
2021/01/15 10:45:26;;;;;;;18.87;9.97;;;;;;;1.32;75.22;103088.97;5042374;28;20268;-77
2021/01/15 10:47:52;;;;;;;16.83;9.60;;;;;;;1.33;75.25;103098.34;5045286;28;20271;-77
2021/01/15 10:50:17;;;;;;;18.97;10.13;;;;;;;1.32;74.94;103088.97;5048797;28;20291;-76
2021/01/15 10:52:42;;;;;;;21.13;9.85;;;;;;;1.32;75.84;103085.56;5047418;28;20028;-77
2021/01/15 10:55:08;;;;;;;19.23;10.43;;;;;;;1.29;75.44;103088.66;5044152;28;20033;-76
2021/01/15 10:57:33;;;;;;;19.08;10.25;;;;;;;1.30;76.75;103089.53;5045022;28;20040;-78
2021/01/15 10:59:59;;;;;;;15.97;9.33;;;;;;;1.34;76.45;103089.13;5042469;28;20600;-78
2021/01/15 11:02:24;;;;;;;21.23;11.10;;;;;;;1.20;77.27;103085.25;5045033;28;20037;-79
2021/01/15 11:04:50;;;;;;;19.77;11.13;;;;;;;1.14;78.15;103083.00;5042258;28;20517;-78
2021/01/15 11:07:15;;;;;;;18.57;10.40;;;;;;;1.15;78.69;103088.97;5041601;28;20032;-76
2021/01/15 11:09:40;;;;;;;19.80;10.90;;;;;;;1.15;79.26;103081.38;5039983;28;20286;-75
2021/01/15 11:12:06;;;;;;;21.00;11.27;;;;;;;1.15;78.64;103083.91;5039376;28;20041;-76
2021/01/15 11:14:32;;;;;;;18.00;10.68;;;;;;;1.16;77.84;103084.06;5045410;28;20280;-76
2021/01/15 11:16:57;;;;;;;17.02;9.85;;;;;;;1.25;79.29;103084.94;5041181;28;20025;-76
2021/01/15 11:19:23;;;;;;;18.45;10.48;;;;;;;1.30;79.48;103084.47;5048790;28;20538;-75
2021/01/15 11:21:50;;;;;;;19.05;11.10;;;;;;;1.36;79.34;103082.56;5040017;28;20024;-76